sensor_id;sensor_type;location;lat;lon;timestamp;P1;durP1;ratioP1;P2;durP2;ratioP2
22697;SDS011;11516;51.612;7.510;2022-11-14T00:01:57;12.67;;;10.03;;
22697;SDS011;11516;51.612;7.510;2022-11-14T00:04:22;11.77;;;9.38;;
22697;SDS011;11516;51.612;7.510;2022-11-14T00:06:48;12.80;;;10.23;;
22697;SDS011;11516;51.612;7.510;2022-11-14T00:09:13;12.63;;;9.60;;
22697;SDS011;11516;51.612;7.510;2022-11-14T00:11:39;13.05;;;10.38;;
22697;SDS011;11516;51.612;7.510;2022-11-14T00:14:04;15.53;;;11.00;;
22697;SDS011;11516;51.612;7.510;2022-11-14T00:16:30;12.68;;;11.07;;
22697;SDS011;11516;51.612;7.510;2022-11-14T00:18:56;13.73;;;11.13;;
22697;SDS011;11516;51.612;7.510;2022-11-14T00:21:21;12.57;;;10.20;;
22697;SDS011;11516;51.612;7.510;2022-11-14T00:23:47;13.23;;;11.23;;
22697;SDS011;11516;51.612;7.510;2022-11-14T00:26:12;12.57;;;10.95;;
22697;SDS011;11516;51.612;7.510;2022-11-14T00:28:38;13.43;;;11.27;;
22697;SDS011;11516;51.612;7.510;2022-11-14T00:31:03;12.87;;;11.13;;
22697;SDS011;11516;51.612;7.510;2022-11-14T00:33:29;14.15;;;11.68;;
22697;SDS011;11516;51.612;7.510;2022-11-14T00:35:55;12.23;;;10.88;;
22697;SDS011;11516;51.612;7.510;2022-11-14T00:38:21;12.70;;;10.77;;
22697;SDS011;11516;51.612;7.510;2022-11-14T00:40:47;13.32;;;10.95;;
22697;SDS011;11516;51.612;7.510;2022-11-14T00:43:13;12.50;;;10.63;;
22697;SDS011;11516;51.612;7.510;2022-11-14T00:45:38;12.65;;;11.20;;
22697;SDS011;11516;51.612;7.510;2022-11-14T00:48:06;12.32;;;10.30;;
22697;SDS011;11516;51.612;7.510;2022-11-14T00:50:31;12.70;;;10.67;;
22697;SDS011;11516;51.612;7.510;2022-11-14T00:52:57;12.70;;;11.07;;
22697;SDS011;11516;51.612;7.510;2022-11-14T00:55:22;12.27;;;10.73;;
22697;SDS011;11516;51.612;7.510;2022-11-14T00:57:48;12.85;;;11.25;;
22697;SDS011;11516;51.612;7.510;2022-11-14T01:00:13;12.37;;;11.00;;
22697;SDS011;11516;51.612;7.510;2022-11-14T01:02:39;13.13;;;11.73;;
22697;SDS011;11516;51.612;7.510;2022-11-14T01:05:05;13.98;;;11.43;;
22697;SDS011;11516;51.612;7.510;2022-11-14T01:07:30;13.35;;;10.70;;
22697;SDS011;11516;51.612;7.510;2022-11-14T01:09:56;13.03;;;11.37;;
22697;SDS011;11516;51.612;7.510;2022-11-14T01:12:21;14.50;;;12.10;;
22697;SDS011;11516;51.612;7.510;2022-11-14T01:14:47;13.57;;;12.18;;
22697;SDS011;11516;51.612;7.510;2022-11-14T01:17:12;15.03;;;12.77;;
22697;SDS011;11516;51.612;7.510;2022-11-14T01:19:38;14.57;;;12.52;;
22697;SDS011;11516;51.612;7.510;2022-11-14T01:22:04;15.57;;;13.00;;
22697;SDS011;11516;51.612;7.510;2022-11-14T01:24:31;14.43;;;12.47;;
22697;SDS011;11516;51.612;7.510;2022-11-14T01:26:57;14.85;;;13.00;;
22697;SDS011;11516;51.612;7.510;2022-11-14T01:29:23;15.27;;;12.83;;
22697;SDS011;11516;51.612;7.510;2022-11-14T01:31:48;14.82;;;13.23;;
22697;SDS011;11516;51.612;7.510;2022-11-14T01:34:14;17.20;;;13.67;;
22697;SDS011;11516;51.612;7.510;2022-11-14T01:36:40;15.43;;;13.30;;
22697;SDS011;11516;51.612;7.510;2022-11-14T01:39:05;16.23;;;13.35;;
22697;SDS011;11516;51.612;7.510;2022-11-14T01:41:30;15.57;;;13.73;;
22697;SDS011;11516;51.612;7.510;2022-11-14T01:43:56;17.73;;;14.23;;
22697;SDS011;11516;51.612;7.510;2022-11-14T01:48:51;14.98;;;12.95;;
22697;SDS011;11516;51.612;7.510;2022-11-14T01:53:53;18.33;;;13.98;;
22697;SDS011;11516;51.612;7.510;2022-11-14T01:56:23;16.55;;;13.90;;
22697;SDS011;11516;51.612;7.510;2022-11-14T01:59:00;16.40;;;13.57;;
22697;SDS011;11516;51.612;7.510;2022-11-14T02:01:36;15.77;;;13.80;;
22697;SDS011;11516;51.612;7.510;2022-11-14T02:04:07;17.70;;;14.55;;
22697;SDS011;11516;51.612;7.510;2022-11-14T02:06:32;16.85;;;14.23;;
22697;SDS011;11516;51.612;7.510;2022-11-14T02:09:04;17.08;;;14.85;;
22697;SDS011;11516;51.612;7.510;2022-11-14T02:11:32;18.05;;;14.38;;
22697;SDS011;11516;51.612;7.510;2022-11-14T02:14:02;17.33;;;14.30;;
22697;SDS011;11516;51.612;7.510;2022-11-14T02:16:28;18.35;;;14.65;;
22697;SDS011;11516;51.612;7.510;2022-11-14T02:18:53;17.97;;;14.50;;
22697;SDS011;11516;51.612;7.510;2022-11-14T02:21:19;17.20;;;15.07;;
22697;SDS011;11516;51.612;7.510;2022-11-14T02:23:45;19.93;;;15.47;;
22697;SDS011;11516;51.612;7.510;2022-11-14T02:26:10;18.77;;;15.32;;
22697;SDS011;11516;51.612;7.510;2022-11-14T02:28:36;19.50;;;16.10;;
22697;SDS011;11516;51.612;7.510;2022-11-14T02:31:02;20.88;;;15.77;;
22697;SDS011;11516;51.612;7.510;2022-11-14T02:33:27;18.67;;;15.90;;
22697;SDS011;11516;51.612;7.510;2022-11-14T02:35:53;18.83;;;15.87;;
22697;SDS011;11516;51.612;7.510;2022-11-14T02:38:18;19.03;;;15.77;;
22697;SDS011;11516;51.612;7.510;2022-11-14T02:40:44;20.45;;;16.90;;
22697;SDS011;11516;51.612;7.510;2022-11-14T02:43:09;18.73;;;15.50;;
22697;SDS011;11516;51.612;7.510;2022-11-14T02:45:35;18.88;;;16.10;;
22697;SDS011;11516;51.612;7.510;2022-11-14T02:48:01;18.70;;;15.10;;
22697;SDS011;11516;51.612;7.510;2022-11-14T02:50:26;18.20;;;14.93;;
22697;SDS011;11516;51.612;7.510;2022-11-14T02:52:52;19.83;;;14.30;;
22697;SDS011;11516;51.612;7.510;2022-11-14T02:55:18;20.08;;;16.30;;
22697;SDS011;11516;51.612;7.510;2022-11-14T02:57:44;21.35;;;15.68;;
22697;SDS011;11516;51.612;7.510;2022-11-14T03:00:10;18.95;;;15.90;;
22697;SDS011;11516;51.612;7.510;2022-11-14T03:02:36;19.45;;;16.38;;
22697;SDS011;11516;51.612;7.510;2022-11-14T03:05:01;18.93;;;16.30;;
22697;SDS011;11516;51.612;7.510;2022-11-14T03:07:27;16.85;;;14.70;;
22697;SDS011;11516;51.612;7.510;2022-11-14T03:09:53;18.23;;;15.73;;
22697;SDS011;11516;51.612;7.510;2022-11-14T03:12:18;19.33;;;16.48;;
22697;SDS011;11516;51.612;7.510;2022-11-14T03:14:44;20.20;;;16.33;;
22697;SDS011;11516;51.612;7.510;2022-11-14T03:17:10;17.13;;;15.00;;
22697;SDS011;11516;51.612;7.510;2022-11-14T03:19:36;19.02;;;15.13;;
22697;SDS011;11516;51.612;7.510;2022-11-14T03:22:02;18.27;;;15.43;;
22697;SDS011;11516;51.612;7.510;2022-11-14T03:24:27;18.27;;;15.65;;
22697;SDS011;11516;51.612;7.510;2022-11-14T03:26:53;20.20;;;15.70;;
22697;SDS011;11516;51.612;7.510;2022-11-14T03:29:19;21.50;;;17.33;;
22697;SDS011;11516;51.612;7.510;2022-11-14T03:31:44;19.50;;;16.23;;
22697;SDS011;11516;51.612;7.510;2022-11-14T03:34:10;22.90;;;18.27;;
22697;SDS011;11516;51.612;7.510;2022-11-14T03:36:35;20.17;;;17.60;;
22697;SDS011;11516;51.612;7.510;2022-11-14T03:39:01;21.23;;;18.25;;
22697;SDS011;11516;51.612;7.510;2022-11-14T03:41:28;20.00;;;16.70;;
22697;SDS011;11516;51.612;7.510;2022-11-14T03:43:53;20.92;;;17.58;;
22697;SDS011;11516;51.612;7.510;2022-11-14T03:46:19;19.60;;;16.77;;
22697;SDS011;11516;51.612;7.510;2022-11-14T03:48:44;20.88;;;17.15;;
22697;SDS011;11516;51.612;7.510;2022-11-14T03:51:10;19.90;;;16.53;;
22697;SDS011;11516;51.612;7.510;2022-11-14T03:53:35;19.93;;;16.87;;
22697;SDS011;11516;51.612;7.510;2022-11-14T03:56:01;21.98;;;17.75;;
22697;SDS011;11516;51.612;7.510;2022-11-14T03:58:27;19.57;;;16.77;;
22697;SDS011;11516;51.612;7.510;2022-11-14T04:00:52;20.87;;;17.30;;
22697;SDS011;11516;51.612;7.510;2022-11-14T04:03:20;20.15;;;16.67;;
22697;SDS011;11516;51.612;7.510;2022-11-14T04:05:46;20.40;;;17.10;;
22697;SDS011;11516;51.612;7.510;2022-11-14T04:08:11;19.55;;;16.13;;
22697;SDS011;11516;51.612;7.510;2022-11-14T04:10:37;18.30;;;15.13;;
22697;SDS011;11516;51.612;7.510;2022-11-14T04:13:03;17.73;;;14.43;;
22697;SDS011;11516;51.612;7.510;2022-11-14T04:15:29;18.15;;;15.15;;
22697;SDS011;11516;51.612;7.510;2022-11-14T04:17:55;16.55;;;14.13;;
22697;SDS011;11516;51.612;7.510;2022-11-14T04:20:20;16.77;;;13.87;;
22697;SDS011;11516;51.612;7.510;2022-11-14T04:22:46;15.43;;;13.53;;
22697;SDS011;11516;51.612;7.510;2022-11-14T04:25:11;15.70;;;13.93;;
22697;SDS011;11516;51.612;7.510;2022-11-14T04:27:37;16.95;;;14.18;;
22697;SDS011;11516;51.612;7.510;2022-11-14T04:30:03;17.23;;;14.43;;
22697;SDS011;11516;51.612;7.510;2022-11-14T04:32:29;17.17;;;14.20;;
22697;SDS011;11516;51.612;7.510;2022-11-14T04:34:55;16.20;;;14.50;;
22697;SDS011;11516;51.612;7.510;2022-11-14T04:37:21;15.00;;;13.25;;
22697;SDS011;11516;51.612;7.510;2022-11-14T04:39:47;15.38;;;13.65;;
22697;SDS011;11516;51.612;7.510;2022-11-14T04:42:12;17.17;;;14.13;;
22697;SDS011;11516;51.612;7.510;2022-11-14T04:44:38;19.55;;;14.95;;
22697;SDS011;11516;51.612;7.510;2022-11-14T04:47:03;18.33;;;15.67;;
22697;SDS011;11516;51.612;7.510;2022-11-14T04:49:29;18.37;;;15.47;;
22697;SDS011;11516;51.612;7.510;2022-11-14T04:51:54;17.73;;;14.88;;
22697;SDS011;11516;51.612;7.510;2022-11-14T04:54:20;18.57;;;15.73;;
22697;SDS011;11516;51.612;7.510;2022-11-14T04:56:45;18.48;;;15.77;;
22697;SDS011;11516;51.612;7.510;2022-11-14T04:59:11;17.87;;;15.93;;
22697;SDS011;11516;51.612;7.510;2022-11-14T05:01:36;18.70;;;15.82;;
22697;SDS011;11516;51.612;7.510;2022-11-14T05:04:02;20.03;;;15.80;;
22697;SDS011;11516;51.612;7.510;2022-11-14T05:06:27;16.85;;;14.90;;
22697;SDS011;11516;51.612;7.510;2022-11-14T05:08:53;18.57;;;15.30;;
22697;SDS011;11516;51.612;7.510;2022-11-14T05:11:19;19.53;;;15.50;;
22697;SDS011;11516;51.612;7.510;2022-11-14T05:13:44;18.30;;;15.00;;
22697;SDS011;11516;51.612;7.510;2022-11-14T05:16:11;21.30;;;15.02;;
22697;SDS011;11516;51.612;7.510;2022-11-14T05:18:37;16.93;;;15.13;;
22697;SDS011;11516;51.612;7.510;2022-11-14T05:21:03;18.57;;;15.73;;
22697;SDS011;11516;51.612;7.510;2022-11-14T05:23:29;17.38;;;15.05;;
22697;SDS011;11516;51.612;7.510;2022-11-14T05:26:01;19.67;;;15.47;;
22697;SDS011;11516;51.612;7.510;2022-11-14T05:28:31;19.98;;;17.23;;
22697;SDS011;11516;51.612;7.510;2022-11-14T05:31:07;19.87;;;16.87;;
22697;SDS011;11516;51.612;7.510;2022-11-14T05:33:35;19.25;;;16.70;;
22697;SDS011;11516;51.612;7.510;2022-11-14T05:36:01;21.73;;;16.70;;
22697;SDS011;11516;51.612;7.510;2022-11-14T05:38:27;20.75;;;16.70;;
22697;SDS011;11516;51.612;7.510;2022-11-14T05:40:52;20.77;;;17.10;;
22697;SDS011;11516;51.612;7.510;2022-11-14T05:43:18;22.37;;;17.50;;
22697;SDS011;11516;51.612;7.510;2022-11-14T05:45:43;20.80;;;17.10;;
22697;SDS011;11516;51.612;7.510;2022-11-14T05:48:09;21.00;;;17.13;;
22697;SDS011;11516;51.612;7.510;2022-11-14T05:50:34;22.63;;;16.88;;
22697;SDS011;11516;51.612;7.510;2022-11-14T05:53:00;21.30;;;16.67;;
22697;SDS011;11516;51.612;7.510;2022-11-14T05:55:25;21.50;;;17.37;;
22697;SDS011;11516;51.612;7.510;2022-11-14T05:57:51;21.33;;;17.45;;
22697;SDS011;11516;51.612;7.510;2022-11-14T06:00:18;21.00;;;18.15;;
22697;SDS011;11516;51.612;7.510;2022-11-14T06:02:44;20.73;;;17.27;;
22697;SDS011;11516;51.612;7.510;2022-11-14T06:05:10;25.17;;;18.88;;
22697;SDS011;11516;51.612;7.510;2022-11-14T06:07:35;23.60;;;18.63;;
22697;SDS011;11516;51.612;7.510;2022-11-14T06:10:03;23.13;;;18.45;;
22697;SDS011;11516;51.612;7.510;2022-11-14T06:12:30;22.35;;;18.50;;
22697;SDS011;11516;51.612;7.510;2022-11-14T06:14:56;22.57;;;18.47;;
22697;SDS011;11516;51.612;7.510;2022-11-14T06:17:21;21.88;;;19.02;;
22697;SDS011;11516;51.612;7.510;2022-11-14T06:19:47;23.77;;;19.43;;
22697;SDS011;11516;51.612;7.510;2022-11-14T06:22:13;23.50;;;18.88;;
22697;SDS011;11516;51.612;7.510;2022-11-14T06:24:38;22.77;;;19.43;;
22697;SDS011;11516;51.612;7.510;2022-11-14T06:27:04;24.37;;;19.57;;
22697;SDS011;11516;51.612;7.510;2022-11-14T06:29:29;26.00;;;20.10;;
22697;SDS011;11516;51.612;7.510;2022-11-14T06:31:55;25.60;;;19.53;;
22697;SDS011;11516;51.612;7.510;2022-11-14T06:34:20;24.90;;;19.25;;
22697;SDS011;11516;51.612;7.510;2022-11-14T06:36:46;24.97;;;20.60;;
22697;SDS011;11516;51.612;7.510;2022-11-14T06:39:11;24.95;;;20.33;;
22697;SDS011;11516;51.612;7.510;2022-11-14T06:41:36;27.67;;;20.17;;
22697;SDS011;11516;51.612;7.510;2022-11-14T06:44:02;24.97;;;19.47;;
22697;SDS011;11516;51.612;7.510;2022-11-14T06:46:27;25.58;;;20.83;;
22697;SDS011;11516;51.612;7.510;2022-11-14T06:48:53;22.90;;;19.50;;
22697;SDS011;11516;51.612;7.510;2022-11-14T06:51:18;25.97;;;20.23;;
22697;SDS011;11516;51.612;7.510;2022-11-14T06:53:44;24.50;;;20.30;;
22697;SDS011;11516;51.612;7.510;2022-11-14T06:56:11;26.50;;;19.70;;
22697;SDS011;11516;51.612;7.510;2022-11-14T06:58:39;25.35;;;20.70;;
22697;SDS011;11516;51.612;7.510;2022-11-14T07:01:10;24.17;;;20.33;;
22697;SDS011;11516;51.612;7.510;2022-11-14T07:03:37;23.70;;;19.17;;
22697;SDS011;11516;51.612;7.510;2022-11-14T07:06:04;24.55;;;19.13;;
22697;SDS011;11516;51.612;7.510;2022-11-14T07:08:30;24.02;;;18.95;;
22697;SDS011;11516;51.612;7.510;2022-11-14T07:11:01;23.80;;;19.50;;
22697;SDS011;11516;51.612;7.510;2022-11-14T07:16:19;23.40;;;18.75;;
22697;SDS011;11516;51.612;7.510;2022-11-14T07:18:48;25.40;;;20.35;;
22697;SDS011;11516;51.612;7.510;2022-11-14T07:21:13;24.47;;;19.77;;
22697;SDS011;11516;51.612;7.510;2022-11-14T07:23:39;22.95;;;19.05;;
22697;SDS011;11516;51.612;7.510;2022-11-14T07:26:06;24.10;;;18.73;;
22697;SDS011;11516;51.612;7.510;2022-11-14T07:28:33;24.33;;;19.33;;
22697;SDS011;11516;51.612;7.510;2022-11-14T07:31:04;24.37;;;19.57;;
22697;SDS011;11516;51.612;7.510;2022-11-14T07:33:40;23.67;;;19.58;;
22697;SDS011;11516;51.612;7.510;2022-11-14T07:36:07;23.92;;;19.33;;
22697;SDS011;11516;51.612;7.510;2022-11-14T07:38:34;24.65;;;19.88;;
22697;SDS011;11516;51.612;7.510;2022-11-14T07:41:01;24.38;;;19.25;;
22697;SDS011;11516;51.612;7.510;2022-11-14T07:43:28;26.77;;;19.85;;
22697;SDS011;11516;51.612;7.510;2022-11-14T07:45:57;22.83;;;18.80;;
22697;SDS011;11516;51.612;7.510;2022-11-14T07:48:27;25.25;;;18.92;;
22697;SDS011;11516;51.612;7.510;2022-11-14T07:50:56;24.40;;;18.90;;
22697;SDS011;11516;51.612;7.510;2022-11-14T07:53:23;26.88;;;20.15;;
22697;SDS011;11516;51.612;7.510;2022-11-14T07:55:48;26.48;;;20.33;;
22697;SDS011;11516;51.612;7.510;2022-11-14T07:58:14;23.87;;;20.10;;
22697;SDS011;11516;51.612;7.510;2022-11-14T08:00:39;25.47;;;19.00;;
22697;SDS011;11516;51.612;7.510;2022-11-14T08:03:06;24.95;;;19.67;;
22697;SDS011;11516;51.612;7.510;2022-11-14T08:05:32;24.75;;;19.52;;
22697;SDS011;11516;51.612;7.510;2022-11-14T08:07:57;26.20;;;20.40;;
22697;SDS011;11516;51.612;7.510;2022-11-14T08:10:23;25.67;;;20.33;;
22697;SDS011;11516;51.612;7.510;2022-11-14T08:12:55;24.87;;;19.27;;
22697;SDS011;11516;51.612;7.510;2022-11-14T08:15:22;27.02;;;20.40;;
22697;SDS011;11516;51.612;7.510;2022-11-14T08:17:48;25.08;;;20.17;;
22697;SDS011;11516;51.612;7.510;2022-11-14T08:20:14;25.80;;;20.27;;
22697;SDS011;11516;51.612;7.510;2022-11-14T08:22:39;31.25;;;23.35;;
22697;SDS011;11516;51.612;7.510;2022-11-14T08:25:05;27.87;;;21.87;;
22697;SDS011;11516;51.612;7.510;2022-11-14T08:27:31;27.55;;;21.23;;
22697;SDS011;11516;51.612;7.510;2022-11-14T08:29:56;26.00;;;20.60;;
22697;SDS011;11516;51.612;7.510;2022-11-14T08:32:22;26.88;;;20.65;;
22697;SDS011;11516;51.612;7.510;2022-11-14T08:34:47;25.63;;;20.17;;
22697;SDS011;11516;51.612;7.510;2022-11-14T08:37:13;25.60;;;19.40;;
22697;SDS011;11516;51.612;7.510;2022-11-14T08:39:38;24.67;;;18.80;;
22697;SDS011;11516;51.612;7.510;2022-11-14T08:42:04;27.23;;;20.23;;
22697;SDS011;11516;51.612;7.510;2022-11-14T08:44:29;25.10;;;19.60;;
22697;SDS011;11516;51.612;7.510;2022-11-14T08:46:55;24.60;;;18.77;;
22697;SDS011;11516;51.612;7.510;2022-11-14T08:49:23;25.15;;;18.38;;
22697;SDS011;11516;51.612;7.510;2022-11-14T08:51:50;22.65;;;18.50;;
22697;SDS011;11516;51.612;7.510;2022-11-14T08:54:17;24.50;;;18.90;;
22697;SDS011;11516;51.612;7.510;2022-11-14T08:56:42;26.33;;;19.38;;
22697;SDS011;11516;51.612;7.510;2022-11-14T08:59:08;24.33;;;19.03;;
22697;SDS011;11516;51.612;7.510;2022-11-14T09:01:33;24.90;;;18.80;;
22697;SDS011;11516;51.612;7.510;2022-11-14T09:03:59;27.90;;;19.50;;
22697;SDS011;11516;51.612;7.510;2022-11-14T09:06:24;25.45;;;19.50;;
22697;SDS011;11516;51.612;7.510;2022-11-14T09:08:50;28.97;;;21.30;;
22697;SDS011;11516;51.612;7.510;2022-11-14T09:11:16;23.67;;;18.60;;
22697;SDS011;11516;51.612;7.510;2022-11-14T09:13:41;30.10;;;22.70;;
22697;SDS011;11516;51.612;7.510;2022-11-14T09:16:07;25.10;;;18.48;;
22697;SDS011;11516;51.612;7.510;2022-11-14T09:18:33;25.47;;;18.70;;
22697;SDS011;11516;51.612;7.510;2022-11-14T09:21:03;23.20;;;18.15;;
22697;SDS011;11516;51.612;7.510;2022-11-14T09:23:30;24.60;;;18.60;;
22697;SDS011;11516;51.612;7.510;2022-11-14T09:25:56;22.58;;;18.08;;
22697;SDS011;11516;51.612;7.510;2022-11-14T09:28:22;23.67;;;17.60;;
22697;SDS011;11516;51.612;7.510;2022-11-14T09:30:48;23.95;;;18.75;;
22697;SDS011;11516;51.612;7.510;2022-11-14T09:33:14;25.53;;;19.57;;
22697;SDS011;11516;51.612;7.510;2022-11-14T09:35:40;25.10;;;18.60;;
22697;SDS011;11516;51.612;7.510;2022-11-14T09:38:06;23.83;;;18.30;;
22697;SDS011;11516;51.612;7.510;2022-11-14T09:46:39;23.10;;;17.88;;
22697;SDS011;11516;51.612;7.510;2022-11-14T09:49:17;25.20;;;18.15;;
22697;SDS011;11516;51.612;7.510;2022-11-14T09:52:14;21.48;;;17.42;;
22697;SDS011;11516;51.612;7.510;2022-11-14T09:54:55;25.20;;;17.63;;
22697;SDS011;11516;51.612;7.510;2022-11-14T09:57:36;23.35;;;17.90;;
22697;SDS011;11516;51.612;7.510;2022-11-14T10:02:49;21.38;;;17.20;;
22697;SDS011;11516;51.612;7.510;2022-11-14T10:20:08;26.83;;;15.32;;
22697;SDS011;11516;51.612;7.510;2022-11-14T10:25:35;18.23;;;14.23;;
22697;SDS011;11516;51.612;7.510;2022-11-14T10:28:15;19.17;;;15.30;;
22697;SDS011;11516;51.612;7.510;2022-11-14T10:31:05;20.97;;;15.77;;
22697;SDS011;11516;51.612;7.510;2022-11-14T10:33:49;19.27;;;14.88;;
22697;SDS011;11516;51.612;7.510;2022-11-14T10:41:54;16.45;;;13.88;;
22697;SDS011;11516;51.612;7.510;2022-11-14T10:44:25;15.77;;;13.63;;
22697;SDS011;11516;51.612;7.510;2022-11-14T10:46:57;18.50;;;13.27;;
22697;SDS011;11516;51.612;7.510;2022-11-14T10:49:28;17.00;;;13.20;;
22697;SDS011;11516;51.612;7.510;2022-11-14T10:52:00;17.90;;;13.77;;
22697;SDS011;11516;51.612;7.510;2022-11-14T10:54:44;18.67;;;14.90;;
22697;SDS011;11516;51.612;7.510;2022-11-14T10:57:13;19.63;;;15.48;;
22697;SDS011;11516;51.612;7.510;2022-11-14T10:59:41;17.33;;;14.70;;
22697;SDS011;11516;51.612;7.510;2022-11-14T11:02:10;20.30;;;14.75;;
22697;SDS011;11516;51.612;7.510;2022-11-14T11:04:36;19.30;;;14.50;;
22697;SDS011;11516;51.612;7.510;2022-11-14T11:09:33;17.85;;;14.07;;
22697;SDS011;11516;51.612;7.510;2022-11-14T11:12:22;18.55;;;13.55;;
22697;SDS011;11516;51.612;7.510;2022-11-14T11:15:11;17.83;;;13.47;;
22697;SDS011;11516;51.612;7.510;2022-11-14T11:17:52;16.35;;;13.27;;
22697;SDS011;11516;51.612;7.510;2022-11-14T11:20:24;15.68;;;12.85;;
22697;SDS011;11516;51.612;7.510;2022-11-14T11:23:46;16.67;;;13.90;;
22697;SDS011;11516;51.612;7.510;2022-11-14T11:25:42;14.27;;;12.07;;
22697;SDS011;11516;51.612;7.510;2022-11-14T11:28:14;14.50;;;12.50;;
22697;SDS011;11516;51.612;7.510;2022-11-14T11:30:58;14.05;;;12.13;;
22697;SDS011;11516;51.612;7.510;2022-11-14T11:33:26;15.65;;;13.05;;
22697;SDS011;11516;51.612;7.510;2022-11-14T11:35:55;15.48;;;12.68;;
22697;SDS011;11516;51.612;7.510;2022-11-14T11:38:25;14.98;;;12.10;;
22697;SDS011;11516;51.612;7.510;2022-11-14T11:40:58;13.98;;;11.55;;
22697;SDS011;11516;51.612;7.510;2022-11-14T11:46:11;19.42;;;14.35;;
22697;SDS011;11516;51.612;7.510;2022-11-14T11:48:50;19.15;;;15.30;;
22697;SDS011;11516;51.612;7.510;2022-11-14T11:51:24;25.60;;;19.48;;
22697;SDS011;11516;51.612;7.510;2022-11-14T11:54:02;16.10;;;12.85;;
22697;SDS011;11516;51.612;7.510;2022-11-14T11:56:37;13.05;;;10.93;;
22697;SDS011;11516;51.612;7.510;2022-11-14T11:59:12;13.25;;;11.40;;
22697;SDS011;11516;51.612;7.510;2022-11-14T12:02:02;13.97;;;11.30;;
22697;SDS011;11516;51.612;7.510;2022-11-14T12:04:43;14.63;;;11.13;;
22697;SDS011;11516;51.612;7.510;2022-11-14T12:07:11;14.33;;;11.20;;
22697;SDS011;11516;51.612;7.510;2022-11-14T12:09:42;12.88;;;11.40;;
22697;SDS011;11516;51.612;7.510;2022-11-14T12:12:16;12.27;;;10.98;;
22697;SDS011;11516;51.612;7.510;2022-11-14T12:15:16;11.80;;;10.43;;
22697;SDS011;11516;51.612;7.510;2022-11-14T12:18:08;12.70;;;11.05;;
22697;SDS011;11516;51.612;7.510;2022-11-14T12:29:14;13.73;;;11.10;;
22697;SDS011;11516;51.612;7.510;2022-11-14T12:31:51;13.27;;;9.95;;
22697;SDS011;11516;51.612;7.510;2022-11-14T12:36:53;13.77;;;10.77;;
22697;SDS011;11516;51.612;7.510;2022-11-14T12:39:23;12.82;;;10.52;;
22697;SDS011;11516;51.612;7.510;2022-11-14T12:41:59;12.35;;;9.52;;
22697;SDS011;11516;51.612;7.510;2022-11-14T12:44:35;13.75;;;10.50;;
22697;SDS011;11516;51.612;7.510;2022-11-14T13:00:26;13.43;;;9.23;;
22697;SDS011;11516;51.612;7.510;2022-11-14T13:14:19;9.82;;;8.32;;
22697;SDS011;11516;51.612;7.510;2022-11-14T13:20:00;18.95;;;15.75;;
22697;SDS011;11516;51.612;7.510;2022-11-14T13:23:22;16.33;;;13.25;;
22697;SDS011;11516;51.612;7.510;2022-11-14T13:33:41;13.02;;;10.32;;
22697;SDS011;11516;51.612;7.510;2022-11-14T13:36:10;12.95;;;9.48;;
22697;SDS011;11516;51.612;7.510;2022-11-14T13:49:31;10.20;;;9.05;;
22697;SDS011;11516;51.612;7.510;2022-11-14T13:52:11;10.50;;;9.02;;
22697;SDS011;11516;51.612;7.510;2022-11-14T13:54:36;14.30;;;12.00;;
22697;SDS011;11516;51.612;7.510;2022-11-14T13:57:31;12.93;;;10.87;;
22697;SDS011;11516;51.612;7.510;2022-11-14T14:00:12;16.23;;;10.98;;
22697;SDS011;11516;51.612;7.510;2022-11-14T14:11:11;12.90;;;10.40;;
22697;SDS011;11516;51.612;7.510;2022-11-14T14:17:08;11.05;;;9.57;;
22697;SDS011;11516;51.612;7.510;2022-11-14T14:20:08;13.07;;;9.97;;
22697;SDS011;11516;51.612;7.510;2022-11-14T14:26:05;12.95;;;9.25;;
22697;SDS011;11516;51.612;7.510;2022-11-14T14:31:41;39.55;;;14.45;;
22697;SDS011;11516;51.612;7.510;2022-11-14T14:34:20;35.33;;;13.47;;
22697;SDS011;11516;51.612;7.510;2022-11-14T14:36:50;33.95;;;12.93;;
22697;SDS011;11516;51.612;7.510;2022-11-14T14:39:18;17.38;;;11.15;;
22697;SDS011;11516;51.612;7.510;2022-11-14T14:41:44;21.42;;;12.38;;
22697;SDS011;11516;51.612;7.510;2022-11-14T14:44:26;27.15;;;19.40;;
22697;SDS011;11516;51.612;7.510;2022-11-14T14:46:57;15.65;;;11.23;;
22697;SDS011;11516;51.612;7.510;2022-11-14T14:49:29;13.93;;;9.77;;
22697;SDS011;11516;51.612;7.510;2022-11-14T14:52:00;11.07;;;8.73;;
22697;SDS011;11516;51.612;7.510;2022-11-14T14:54:27;15.47;;;9.37;;
22697;SDS011;11516;51.612;7.510;2022-11-14T14:56:57;12.65;;;8.80;;
22697;SDS011;11516;51.612;7.510;2022-11-14T14:59:27;9.75;;;8.32;;
22697;SDS011;11516;51.612;7.510;2022-11-14T15:01:54;11.73;;;8.70;;
22697;SDS011;11516;51.612;7.510;2022-11-14T15:04:22;12.10;;;8.88;;
22697;SDS011;11516;51.612;7.510;2022-11-14T15:06:50;10.32;;;8.50;;
22697;SDS011;11516;51.612;7.510;2022-11-14T15:09:17;13.90;;;10.57;;
22697;SDS011;11516;51.612;7.510;2022-11-14T15:11:46;14.15;;;9.80;;
22697;SDS011;11516;51.612;7.510;2022-11-14T15:14:21;12.68;;;8.75;;
22697;SDS011;11516;51.612;7.510;2022-11-14T15:16:49;9.90;;;8.40;;
22697;SDS011;11516;51.612;7.510;2022-11-14T15:19:17;9.38;;;8.20;;
22697;SDS011;11516;51.612;7.510;2022-11-14T15:21:51;10.63;;;8.50;;
22697;SDS011;11516;51.612;7.510;2022-11-14T15:24:29;11.13;;;8.57;;
22697;SDS011;11516;51.612;7.510;2022-11-14T15:26:55;9.95;;;8.45;;
22697;SDS011;11516;51.612;7.510;2022-11-14T15:29:22;10.57;;;7.80;;
22697;SDS011;11516;51.612;7.510;2022-11-14T15:34:23;11.27;;;7.82;;
22697;SDS011;11516;51.612;7.510;2022-11-14T15:39:34;9.60;;;8.37;;
22697;SDS011;11516;51.612;7.510;2022-11-14T15:44:39;12.40;;;9.83;;
22697;SDS011;11516;51.612;7.510;2022-11-14T15:50:05;9.95;;;8.55;;
22697;SDS011;11516;51.612;7.510;2022-11-14T15:53:05;12.05;;;9.20;;
22697;SDS011;11516;51.612;7.510;2022-11-14T15:55:40;11.00;;;8.88;;
22697;SDS011;11516;51.612;7.510;2022-11-14T15:58:09;11.70;;;9.23;;
22697;SDS011;11516;51.612;7.510;2022-11-14T16:00:36;11.27;;;9.32;;
22697;SDS011;11516;51.612;7.510;2022-11-14T16:03:08;10.93;;;9.07;;
22697;SDS011;11516;51.612;7.510;2022-11-14T16:05:36;9.80;;;8.80;;
22697;SDS011;11516;51.612;7.510;2022-11-14T16:08:01;11.73;;;9.17;;
22697;SDS011;11516;51.612;7.510;2022-11-14T16:10:27;10.53;;;8.50;;
22697;SDS011;11516;51.612;7.510;2022-11-14T16:12:52;11.40;;;8.82;;
22697;SDS011;11516;51.612;7.510;2022-11-14T16:15:19;10.38;;;8.68;;
22697;SDS011;11516;51.612;7.510;2022-11-14T16:17:45;11.60;;;8.90;;
22697;SDS011;11516;51.612;7.510;2022-11-14T16:20:13;9.77;;;8.63;;
22697;SDS011;11516;51.612;7.510;2022-11-14T16:22:42;10.45;;;9.30;;
22697;SDS011;11516;51.612;7.510;2022-11-14T16:25:14;12.23;;;10.27;;
22697;SDS011;11516;51.612;7.510;2022-11-14T16:27:42;11.63;;;9.05;;
22697;SDS011;11516;51.612;7.510;2022-11-14T16:30:09;11.50;;;9.15;;
22697;SDS011;11516;51.612;7.510;2022-11-14T16:32:36;11.48;;;8.77;;
22697;SDS011;11516;51.612;7.510;2022-11-14T16:35:02;12.38;;;9.63;;
22697;SDS011;11516;51.612;7.510;2022-11-14T16:37:27;11.70;;;9.10;;
22697;SDS011;11516;51.612;7.510;2022-11-14T16:39:53;10.67;;;9.00;;
22697;SDS011;11516;51.612;7.510;2022-11-14T16:42:18;11.03;;;9.57;;
22697;SDS011;11516;51.612;7.510;2022-11-14T16:44:44;11.38;;;9.60;;